sensor_id;sensor_type;location;lat;lon;timestamp;P1;durP1;ratioP1;P2;durP2;ratioP2
70213;SDS011;60138;55.808;37.078;2023-11-18T00:02:24;23.60;;;11.60;;
70213;SDS011;60138;55.808;37.078;2023-11-18T00:04:49;24.75;;;12.55;;
70213;SDS011;60138;55.808;37.078;2023-11-18T00:07:15;19.67;;;11.98;;
70213;SDS011;60138;55.808;37.078;2023-11-18T00:09:41;21.83;;;11.27;;
70213;SDS011;60138;55.808;37.078;2023-11-18T00:12:07;15.80;;;10.23;;
70213;SDS011;60138;55.808;37.078;2023-11-18T00:14:32;19.63;;;9.93;;
70213;SDS011;60138;55.808;37.078;2023-11-18T00:16:58;16.35;;;10.00;;
70213;SDS011;60138;55.808;37.078;2023-11-18T00:19:24;16.00;;;8.47;;
70213;SDS011;60138;55.808;37.078;2023-11-18T00:21:49;17.10;;;9.20;;
70213;SDS011;60138;55.808;37.078;2023-11-18T00:24:15;12.77;;;7.83;;
70213;SDS011;60138;55.808;37.078;2023-11-18T00:26:41;14.90;;;8.20;;
70213;SDS011;60138;55.808;37.078;2023-11-18T00:29:07;15.43;;;8.40;;
70213;SDS011;60138;55.808;37.078;2023-11-18T00:31:33;14.18;;;8.10;;
70213;SDS011;60138;55.808;37.078;2023-11-18T00:33:58;15.63;;;8.17;;
70213;SDS011;60138;55.808;37.078;2023-11-18T00:36:24;17.80;;;8.43;;
70213;SDS011;60138;55.808;37.078;2023-11-18T00:38:50;19.27;;;8.00;;
70213;SDS011;60138;55.808;37.078;2023-11-18T00:41:15;13.63;;;7.87;;
70213;SDS011;60138;55.808;37.078;2023-11-18T00:43:41;16.23;;;8.57;;
70213;SDS011;60138;55.808;37.078;2023-11-18T00:46:07;15.93;;;9.10;;
70213;SDS011;60138;55.808;37.078;2023-11-18T00:48:33;18.60;;;9.73;;
70213;SDS011;60138;55.808;37.078;2023-11-18T00:50:59;20.93;;;9.63;;
70213;SDS011;60138;55.808;37.078;2023-11-18T00:53:24;20.58;;;9.98;;
70213;SDS011;60138;55.808;37.078;2023-11-18T00:55:50;19.23;;;10.13;;
70213;SDS011;60138;55.808;37.078;2023-11-18T00:58:16;20.00;;;9.57;;
70213;SDS011;60138;55.808;37.078;2023-11-18T01:00:41;19.43;;;8.60;;
70213;SDS011;60138;55.808;37.078;2023-11-18T01:03:07;16.60;;;9.83;;
70213;SDS011;60138;55.808;37.078;2023-11-18T01:05:33;15.65;;;8.98;;
70213;SDS011;60138;55.808;37.078;2023-11-18T01:07:58;19.10;;;9.47;;
70213;SDS011;60138;55.808;37.078;2023-11-18T01:10:24;16.52;;;8.23;;
70213;SDS011;60138;55.808;37.078;2023-11-18T01:12:50;26.60;;;9.20;;
70213;SDS011;60138;55.808;37.078;2023-11-18T01:15:15;14.52;;;8.45;;
70213;SDS011;60138;55.808;37.078;2023-11-18T01:17:41;15.23;;;8.20;;
70213;SDS011;60138;55.808;37.078;2023-11-18T01:20:07;18.98;;;8.88;;
70213;SDS011;60138;55.808;37.078;2023-11-18T01:22:33;18.13;;;9.32;;
70213;SDS011;60138;55.808;37.078;2023-11-18T01:25:00;17.98;;;9.35;;
70213;SDS011;60138;55.808;37.078;2023-11-18T01:27:26;18.15;;;9.00;;
70213;SDS011;60138;55.808;37.078;2023-11-18T01:29:52;18.77;;;10.20;;
70213;SDS011;60138;55.808;37.078;2023-11-18T01:32:17;17.25;;;7.57;;
70213;SDS011;60138;55.808;37.078;2023-11-18T01:34:43;16.00;;;9.10;;
70213;SDS011;60138;55.808;37.078;2023-11-18T01:37:09;17.33;;;8.87;;
70213;SDS011;60138;55.808;37.078;2023-11-18T01:39:35;18.23;;;9.30;;
70213;SDS011;60138;55.808;37.078;2023-11-18T01:42:02;15.43;;;8.80;;
70213;SDS011;60138;55.808;37.078;2023-11-18T01:44:29;19.02;;;9.27;;
70213;SDS011;60138;55.808;37.078;2023-11-18T01:46:57;13.97;;;8.23;;
70213;SDS011;60138;55.808;37.078;2023-11-18T01:49:24;19.05;;;9.07;;
70213;SDS011;60138;55.808;37.078;2023-11-18T01:51:51;19.92;;;9.20;;
70213;SDS011;60138;55.808;37.078;2023-11-18T01:54:19;14.37;;;8.70;;
70213;SDS011;60138;55.808;37.078;2023-11-18T01:56:47;14.07;;;9.63;;
70213;SDS011;60138;55.808;37.078;2023-11-18T01:59:14;17.52;;;8.75;;
70213;SDS011;60138;55.808;37.078;2023-11-18T02:01:40;18.45;;;9.75;;
70213;SDS011;60138;55.808;37.078;2023-11-18T02:04:06;18.65;;;9.32;;
70213;SDS011;60138;55.808;37.078;2023-11-18T02:06:32;18.65;;;8.23;;
70213;SDS011;60138;55.808;37.078;2023-11-18T02:08:57;15.17;;;8.87;;
70213;SDS011;60138;55.808;37.078;2023-11-18T02:11:28;15.23;;;9.13;;
70213;SDS011;60138;55.808;37.078;2023-11-18T02:13:57;14.33;;;8.37;;
70213;SDS011;60138;55.808;37.078;2023-11-18T02:16:25;20.60;;;9.07;;
70213;SDS011;60138;55.808;37.078;2023-11-18T02:18:52;14.52;;;8.82;;
70213;SDS011;60138;55.808;37.078;2023-11-18T02:21:19;15.47;;;8.20;;
70213;SDS011;60138;55.808;37.078;2023-11-18T02:23:47;16.05;;;8.38;;
70213;SDS011;60138;55.808;37.078;2023-11-18T02:26:20;15.05;;;9.15;;
70213;SDS011;60138;55.808;37.078;2023-11-18T02:28:47;24.42;;;9.40;;
70213;SDS011;60138;55.808;37.078;2023-11-18T02:31:15;15.85;;;9.18;;
70213;SDS011;60138;55.808;37.078;2023-11-18T02:33:54;12.75;;;8.27;;
70213;SDS011;60138;55.808;37.078;2023-11-18T02:36:27;18.53;;;8.97;;
70213;SDS011;60138;55.808;37.078;2023-11-18T02:39:16;22.10;;;8.50;;
70213;SDS011;60138;55.808;37.078;2023-11-18T02:41:57;14.07;;;8.48;;
70213;SDS011;60138;55.808;37.078;2023-11-18T02:44:23;18.40;;;9.40;;
70213;SDS011;60138;55.808;37.078;2023-11-18T02:46:49;17.00;;;8.57;;
70213;SDS011;60138;55.808;37.078;2023-11-18T02:49:15;16.58;;;9.40;;
70213;SDS011;60138;55.808;37.078;2023-11-18T02:51:41;15.97;;;9.57;;
70213;SDS011;60138;55.808;37.078;2023-11-18T02:54:07;20.35;;;8.93;;
70213;SDS011;60138;55.808;37.078;2023-11-18T02:56:33;21.02;;;9.63;;
70213;SDS011;60138;55.808;37.078;2023-11-18T02:58:58;17.48;;;9.43;;
70213;SDS011;60138;55.808;37.078;2023-11-18T03:01:24;14.85;;;8.77;;
70213;SDS011;60138;55.808;37.078;2023-11-18T03:03:51;19.73;;;8.82;;
70213;SDS011;60138;55.808;37.078;2023-11-18T03:06:17;18.88;;;9.00;;
70213;SDS011;60138;55.808;37.078;2023-11-18T03:08:43;14.57;;;8.80;;
70213;SDS011;60138;55.808;37.078;2023-11-18T03:11:08;14.20;;;8.10;;
70213;SDS011;60138;55.808;37.078;2023-11-18T03:13:35;16.27;;;8.63;;
70213;SDS011;60138;55.808;37.078;2023-11-18T03:16:01;15.40;;;8.80;;
70213;SDS011;60138;55.808;37.078;2023-11-18T03:18:26;16.63;;;9.43;;
70213;SDS011;60138;55.808;37.078;2023-11-18T03:20:52;18.38;;;8.77;;
70213;SDS011;60138;55.808;37.078;2023-11-18T03:23:18;24.77;;;9.53;;
70213;SDS011;60138;55.808;37.078;2023-11-18T03:25:44;15.50;;;9.32;;
70213;SDS011;60138;55.808;37.078;2023-11-18T03:28:10;16.70;;;9.20;;
70213;SDS011;60138;55.808;37.078;2023-11-18T03:30:35;14.98;;;8.40;;
70213;SDS011;60138;55.808;37.078;2023-11-18T03:33:01;15.73;;;9.33;;
70213;SDS011;60138;55.808;37.078;2023-11-18T03:35:27;15.88;;;8.90;;
70213;SDS011;60138;55.808;37.078;2023-11-18T03:37:52;14.53;;;9.17;;
70213;SDS011;60138;55.808;37.078;2023-11-18T03:40:18;16.38;;;8.93;;
70213;SDS011;60138;55.808;37.078;2023-11-18T03:42:44;15.10;;;8.80;;
70213;SDS011;60138;55.808;37.078;2023-11-18T03:45:10;14.60;;;7.70;;
70213;SDS011;60138;55.808;37.078;2023-11-18T03:47:35;14.50;;;7.97;;
70213;SDS011;60138;55.808;37.078;2023-11-18T03:50:01;16.00;;;8.30;;
70213;SDS011;60138;55.808;37.078;2023-11-18T03:52:29;15.90;;;8.33;;
70213;SDS011;60138;55.808;37.078;2023-11-18T03:54:55;17.73;;;8.23;;
70213;SDS011;60138;55.808;37.078;2023-11-18T03:57:21;14.10;;;7.80;;
70213;SDS011;60138;55.808;37.078;2023-11-18T03:59:47;13.82;;;8.05;;
70213;SDS011;60138;55.808;37.078;2023-11-18T04:02:12;14.90;;;8.47;;
70213;SDS011;60138;55.808;37.078;2023-11-18T04:04:39;17.30;;;8.73;;
70213;SDS011;60138;55.808;37.078;2023-11-18T04:07:04;22.25;;;8.65;;
70213;SDS011;60138;55.808;37.078;2023-11-18T04:09:30;18.03;;;9.23;;
70213;SDS011;60138;55.808;37.078;2023-11-18T04:11:57;15.98;;;8.63;;
70213;SDS011;60138;55.808;37.078;2023-11-18T04:14:22;14.80;;;8.85;;
70213;SDS011;60138;55.808;37.078;2023-11-18T04:16:48;13.83;;;9.23;;
70213;SDS011;60138;55.808;37.078;2023-11-18T04:19:14;19.90;;;9.35;;
70213;SDS011;60138;55.808;37.078;2023-11-18T04:21:40;15.17;;;10.00;;
70213;SDS011;60138;55.808;37.078;2023-11-18T04:24:05;22.55;;;11.30;;
70213;SDS011;60138;55.808;37.078;2023-11-18T04:26:32;22.70;;;11.47;;
70213;SDS011;60138;55.808;37.078;2023-11-18T04:28:58;23.27;;;12.70;;
70213;SDS011;60138;55.808;37.078;2023-11-18T04:31:24;22.75;;;12.05;;
70213;SDS011;60138;55.808;37.078;2023-11-18T04:33:50;18.80;;;12.15;;
70213;SDS011;60138;55.808;37.078;2023-11-18T04:36:16;22.42;;;12.48;;
70213;SDS011;60138;55.808;37.078;2023-11-18T04:38:42;31.85;;;14.43;;
70213;SDS011;60138;55.808;37.078;2023-11-18T04:41:08;28.30;;;15.25;;
70213;SDS011;60138;55.808;37.078;2023-11-18T04:43:34;31.10;;;16.65;;
70213;SDS011;60138;55.808;37.078;2023-11-18T04:45:59;34.87;;;15.10;;
70213;SDS011;60138;55.808;37.078;2023-11-18T04:48:25;31.05;;;15.38;;
70213;SDS011;60138;55.808;37.078;2023-11-18T04:50:51;35.35;;;14.27;;
70213;SDS011;60138;55.808;37.078;2023-11-18T04:53:17;24.03;;;13.43;;
70213;SDS011;60138;55.808;37.078;2023-11-18T04:55:43;34.97;;;15.30;;
70213;SDS011;60138;55.808;37.078;2023-11-18T04:58:09;29.10;;;14.70;;
70213;SDS011;60138;55.808;37.078;2023-11-18T05:00:38;24.40;;;14.35;;
70213;SDS011;60138;55.808;37.078;2023-11-18T05:03:04;22.87;;;12.80;;
70213;SDS011;60138;55.808;37.078;2023-11-18T05:05:30;25.50;;;12.35;;
70213;SDS011;60138;55.808;37.078;2023-11-18T05:07:56;27.33;;;11.52;;
70213;SDS011;60138;55.808;37.078;2023-11-18T05:10:22;18.10;;;10.10;;
70213;SDS011;60138;55.808;37.078;2023-11-18T05:12:48;18.08;;;11.63;;
70213;SDS011;60138;55.808;37.078;2023-11-18T05:15:13;18.37;;;11.13;;
70213;SDS011;60138;55.808;37.078;2023-11-18T05:17:39;28.52;;;13.82;;
70213;SDS011;60138;55.808;37.078;2023-11-18T05:20:05;40.23;;;17.43;;
70213;SDS011;60138;55.808;37.078;2023-11-18T05:22:31;38.08;;;16.50;;
70213;SDS011;60138;55.808;37.078;2023-11-18T05:24:57;52.93;;;20.70;;
70213;SDS011;60138;55.808;37.078;2023-11-18T05:27:23;40.45;;;18.75;;
70213;SDS011;60138;55.808;37.078;2023-11-18T05:29:49;53.73;;;19.27;;
70213;SDS011;60138;55.808;37.078;2023-11-18T05:32:14;43.88;;;18.98;;
70213;SDS011;60138;55.808;37.078;2023-11-18T05:34:40;48.13;;;19.33;;
70213;SDS011;60138;55.808;37.078;2023-11-18T05:37:06;44.50;;;18.90;;
70213;SDS011;60138;55.808;37.078;2023-11-18T05:39:31;46.65;;;17.33;;
70213;SDS011;60138;55.808;37.078;2023-11-18T05:41:57;37.87;;;17.57;;
70213;SDS011;60138;55.808;37.078;2023-11-18T05:44:23;42.53;;;18.55;;
70213;SDS011;60138;55.808;37.078;2023-11-18T05:46:49;29.80;;;15.05;;
70213;SDS011;60138;55.808;37.078;2023-11-18T05:49:14;35.53;;;18.40;;
70213;SDS011;60138;55.808;37.078;2023-11-18T05:51:40;44.80;;;18.00;;
70213;SDS011;60138;55.808;37.078;2023-11-18T05:54:06;44.83;;;20.17;;
70213;SDS011;60138;55.808;37.078;2023-11-18T05:56:32;50.30;;;21.50;;
70213;SDS011;60138;55.808;37.078;2023-11-18T05:58:58;50.58;;;21.30;;
70213;SDS011;60138;55.808;37.078;2023-11-18T06:01:24;54.90;;;23.37;;
70213;SDS011;60138;55.808;37.078;2023-11-18T06:03:50;47.30;;;21.38;;
70213;SDS011;60138;55.808;37.078;2023-11-18T06:06:16;70.72;;;25.38;;
70213;SDS011;60138;55.808;37.078;2023-11-18T06:08:42;107.57;;;40.00;;
70213;SDS011;60138;55.808;37.078;2023-11-18T06:11:11;78.15;;;32.95;;
70213;SDS011;60138;55.808;37.078;2023-11-18T06:13:37;66.15;;;26.40;;
70213;SDS011;60138;55.808;37.078;2023-11-18T06:16:04;57.60;;;23.52;;
70213;SDS011;60138;55.808;37.078;2023-11-18T06:18:30;44.95;;;20.02;;
70213;SDS011;60138;55.808;37.078;2023-11-18T06:20:56;41.25;;;18.15;;
70213;SDS011;60138;55.808;37.078;2023-11-18T06:23:21;35.70;;;16.20;;
70213;SDS011;60138;55.808;37.078;2023-11-18T06:25:47;30.30;;;14.47;;
70213;SDS011;60138;55.808;37.078;2023-11-18T06:28:13;37.47;;;16.20;;
70213;SDS011;60138;55.808;37.078;2023-11-18T06:30:38;36.20;;;15.13;;
70213;SDS011;60138;55.808;37.078;2023-11-18T06:33:04;36.60;;;21.05;;
70213;SDS011;60138;55.808;37.078;2023-11-18T06:35:30;27.83;;;13.67;;
70213;SDS011;60138;55.808;37.078;2023-11-18T06:37:56;23.92;;;12.25;;
70213;SDS011;60138;55.808;37.078;2023-11-18T06:40:21;20.70;;;10.98;;
70213;SDS011;60138;55.808;37.078;2023-11-18T06:42:47;19.63;;;9.80;;
70213;SDS011;60138;55.808;37.078;2023-11-18T06:45:16;20.77;;;11.73;;
70213;SDS011;60138;55.808;37.078;2023-11-18T06:47:41;26.13;;;12.85;;
70213;SDS011;60138;55.808;37.078;2023-11-18T06:50:07;28.47;;;15.40;;
70213;SDS011;60138;55.808;37.078;2023-11-18T06:52:36;26.30;;;14.07;;
70213;SDS011;60138;55.808;37.078;2023-11-18T06:55:02;23.10;;;12.05;;
70213;SDS011;60138;55.808;37.078;2023-11-18T06:57:29;32.43;;;13.23;;
70213;SDS011;60138;55.808;37.078;2023-11-18T06:59:54;29.80;;;12.70;;
70213;SDS011;60138;55.808;37.078;2023-11-18T07:02:20;22.10;;;13.07;;
70213;SDS011;60138;55.808;37.078;2023-11-18T07:04:46;24.67;;;14.68;;
70213;SDS011;60138;55.808;37.078;2023-11-18T07:07:11;25.10;;;12.93;;
70213;SDS011;60138;55.808;37.078;2023-11-18T07:09:37;23.37;;;12.13;;
70213;SDS011;60138;55.808;37.078;2023-11-18T07:12:03;15.77;;;9.10;;
70213;SDS011;60138;55.808;37.078;2023-11-18T07:14:29;20.70;;;11.17;;
70213;SDS011;60138;55.808;37.078;2023-11-18T07:16:54;27.90;;;13.55;;
70213;SDS011;60138;55.808;37.078;2023-11-18T07:19:20;35.83;;;17.02;;
70213;SDS011;60138;55.808;37.078;2023-11-18T07:21:46;36.20;;;18.20;;
70213;SDS011;60138;55.808;37.078;2023-11-18T07:24:12;49.30;;;20.63;;
70213;SDS011;60138;55.808;37.078;2023-11-18T07:26:38;60.70;;;22.27;;
70213;SDS011;60138;55.808;37.078;2023-11-18T07:29:04;38.75;;;18.73;;
70213;SDS011;60138;55.808;37.078;2023-11-18T07:31:30;40.93;;;16.93;;
70213;SDS011;60138;55.808;37.078;2023-11-18T07:33:55;59.83;;;26.87;;
70213;SDS011;60138;55.808;37.078;2023-11-18T07:36:21;49.53;;;23.95;;
70213;SDS011;60138;55.808;37.078;2023-11-18T07:38:47;53.00;;;26.50;;
70213;SDS011;60138;55.808;37.078;2023-11-18T07:41:13;60.08;;;25.85;;
70213;SDS011;60138;55.808;37.078;2023-11-18T07:43:38;54.25;;;25.95;;
70213;SDS011;60138;55.808;37.078;2023-11-18T07:46:04;50.50;;;24.77;;
70213;SDS011;60138;55.808;37.078;2023-11-18T07:48:30;56.53;;;22.50;;
70213;SDS011;60138;55.808;37.078;2023-11-18T07:50:56;48.27;;;22.03;;
70213;SDS011;60138;55.808;37.078;2023-11-18T07:53:21;45.90;;;22.98;;
70213;SDS011;60138;55.808;37.078;2023-11-18T07:55:47;50.00;;;24.30;;
70213;SDS011;60138;55.808;37.078;2023-11-18T07:58:13;56.13;;;25.33;;
70213;SDS011;60138;55.808;37.078;2023-11-18T08:00:39;67.20;;;26.63;;
70213;SDS011;60138;55.808;37.078;2023-11-18T08:03:06;60.63;;;22.23;;
70213;SDS011;60138;55.808;37.078;2023-11-18T08:05:32;60.08;;;26.08;;
70213;SDS011;60138;55.808;37.078;2023-11-18T08:07:58;81.88;;;31.13;;
70213;SDS011;60138;55.808;37.078;2023-11-18T08:10:23;64.53;;;29.45;;
70213;SDS011;60138;55.808;37.078;2023-11-18T08:12:49;64.97;;;27.40;;
70213;SDS011;60138;55.808;37.078;2023-11-18T08:15:15;59.00;;;24.50;;
70213;SDS011;60138;55.808;37.078;2023-11-18T08:17:41;48.80;;;22.38;;
70213;SDS011;60138;55.808;37.078;2023-11-18T08:20:06;45.27;;;18.87;;
70213;SDS011;60138;55.808;37.078;2023-11-18T08:22:32;34.35;;;19.83;;
70213;SDS011;60138;55.808;37.078;2023-11-18T08:24:58;34.97;;;19.77;;
70213;SDS011;60138;55.808;37.078;2023-11-18T08:27:24;38.85;;;21.50;;
70213;SDS011;60138;55.808;37.078;2023-11-18T08:29:49;35.03;;;17.43;;
70213;SDS011;60138;55.808;37.078;2023-11-18T08:32:15;47.90;;;20.13;;
70213;SDS011;60138;55.808;37.078;2023-11-18T08:34:41;44.27;;;19.00;;
70213;SDS011;60138;55.808;37.078;2023-11-18T08:37:07;32.27;;;16.17;;
70213;SDS011;60138;55.808;37.078;2023-11-18T08:39:32;25.42;;;15.82;;
70213;SDS011;60138;55.808;37.078;2023-11-18T08:41:58;21.67;;;11.63;;
70213;SDS011;60138;55.808;37.078;2023-11-18T08:44:24;20.33;;;10.57;;
70213;SDS011;60138;55.808;37.078;2023-11-18T08:46:51;24.33;;;13.45;;
70213;SDS011;60138;55.808;37.078;2023-11-18T08:49:18;25.65;;;13.73;;
70213;SDS011;60138;55.808;37.078;2023-11-18T08:51:44;18.70;;;9.75;;
70213;SDS011;60138;55.808;37.078;2023-11-18T08:54:10;17.15;;;9.90;;
70213;SDS011;60138;55.808;37.078;2023-11-18T08:56:38;16.67;;;9.73;;
70213;SDS011;60138;55.808;37.078;2023-11-18T08:59:04;21.08;;;9.90;;
70213;SDS011;60138;55.808;37.078;2023-11-18T09:01:30;23.37;;;11.73;;
70213;SDS011;60138;55.808;37.078;2023-11-18T09:03:56;20.98;;;10.77;;
70213;SDS011;60138;55.808;37.078;2023-11-18T09:06:21;19.30;;;9.70;;
70213;SDS011;60138;55.808;37.078;2023-11-18T09:08:48;18.52;;;10.60;;
70213;SDS011;60138;55.808;37.078;2023-11-18T09:11:17;18.00;;;9.50;;
70213;SDS011;60138;55.808;37.078;2023-11-18T09:13:43;22.65;;;11.05;;
70213;SDS011;60138;55.808;37.078;2023-11-18T09:16:10;16.35;;;9.05;;
70213;SDS011;60138;55.808;37.078;2023-11-18T09:18:40;16.60;;;9.47;;
70213;SDS011;60138;55.808;37.078;2023-11-18T09:21:06;22.17;;;10.15;;
70213;SDS011;60138;55.808;37.078;2023-11-18T09:23:33;18.48;;;9.02;;
70213;SDS011;60138;55.808;37.078;2023-11-18T09:26:00;20.52;;;11.35;;
70213;SDS011;60138;55.808;37.078;2023-11-18T09:28:27;16.40;;;11.10;;
70213;SDS011;60138;55.808;37.078;2023-11-18T09:30:53;21.77;;;11.73;;
70213;SDS011;60138;55.808;37.078;2023-11-18T09:33:22;15.95;;;9.82;;
70213;SDS011;60138;55.808;37.078;2023-11-18T09:35:49;19.07;;;8.60;;
70213;SDS011;60138;55.808;37.078;2023-11-18T09:38:15;15.02;;;7.47;;
70213;SDS011;60138;55.808;37.078;2023-11-18T09:40:40;18.23;;;9.40;;
70213;SDS011;60138;55.808;37.078;2023-11-18T09:43:09;15.38;;;7.50;;
70213;SDS011;60138;55.808;37.078;2023-11-18T09:45:35;12.80;;;7.63;;
70213;SDS011;60138;55.808;37.078;2023-11-18T09:48:01;14.40;;;7.47;;
70213;SDS011;60138;55.808;37.078;2023-11-18T09:50:29;17.30;;;7.82;;
70213;SDS011;60138;55.808;37.078;2023-11-18T09:52:57;13.32;;;6.35;;
70213;SDS011;60138;55.808;37.078;2023-11-18T09:55:38;11.10;;;6.07;;
70213;SDS011;60138;55.808;37.078;2023-11-18T09:58:15;12.45;;;6.63;;
70213;SDS011;60138;55.808;37.078;2023-11-18T10:00:43;12.03;;;6.93;;
70213;SDS011;60138;55.808;37.078;2023-11-18T10:03:13;9.60;;;6.40;;
70213;SDS011;60138;55.808;37.078;2023-11-18T10:05:40;14.23;;;7.73;;
70213;SDS011;60138;55.808;37.078;2023-11-18T10:08:06;9.45;;;6.97;;
70213;SDS011;60138;55.808;37.078;2023-11-18T10:10:31;11.18;;;6.65;;
70213;SDS011;60138;55.808;37.078;2023-11-18T10:12:57;12.33;;;6.50;;
70213;SDS011;60138;55.808;37.078;2023-11-18T10:15:24;12.63;;;6.03;;
70213;SDS011;60138;55.808;37.078;2023-11-18T10:17:51;13.45;;;7.65;;
70213;SDS011;60138;55.808;37.078;2023-11-18T10:20:17;9.30;;;7.10;;
70213;SDS011;60138;55.808;37.078;2023-11-18T10:22:43;11.55;;;7.75;;
70213;SDS011;60138;55.808;37.078;2023-11-18T10:25:08;15.67;;;9.13;;
70213;SDS011;60138;55.808;37.078;2023-11-18T10:27:34;15.90;;;7.60;;
70213;SDS011;60138;55.808;37.078;2023-11-18T10:30:06;12.17;;;7.80;;
70213;SDS011;60138;55.808;37.078;2023-11-18T10:32:33;14.23;;;8.45;;
70213;SDS011;60138;55.808;37.078;2023-11-18T10:34:59;15.00;;;7.90;;
70213;SDS011;60138;55.808;37.078;2023-11-18T10:37:25;12.68;;;7.45;;
70213;SDS011;60138;55.808;37.078;2023-11-18T10:39:51;17.00;;;6.70;;
70213;SDS011;60138;55.808;37.078;2023-11-18T10:42:18;17.33;;;7.60;;
70213;SDS011;60138;55.808;37.078;2023-11-18T10:44:56;15.77;;;7.95;;
70213;SDS011;60138;55.808;37.078;2023-11-18T10:47:26;14.32;;;7.25;;
70213;SDS011;60138;55.808;37.078;2023-11-18T10:49:53;13.60;;;8.07;;
70213;SDS011;60138;55.808;37.078;2023-11-18T10:52:19;15.77;;;7.68;;
70213;SDS011;60138;55.808;37.078;2023-11-18T10:54:54;17.10;;;9.10;;
70213;SDS011;60138;55.808;37.078;2023-11-18T10:57:20;13.77;;;7.80;;
70213;SDS011;60138;55.808;37.078;2023-11-18T11:00:03;12.15;;;8.13;;
70213;SDS011;60138;55.808;37.078;2023-11-18T11:02:33;13.00;;;7.45;;
70213;SDS011;60138;55.808;37.078;2023-11-18T11:04:58;15.20;;;9.27;;
70213;SDS011;60138;55.808;37.078;2023-11-18T11:07:24;12.55;;;7.65;;
70213;SDS011;60138;55.808;37.078;2023-11-18T11:09:51;12.23;;;8.00;;
70213;SDS011;60138;55.808;37.078;2023-11-18T11:12:17;13.15;;;8.30;;
70213;SDS011;60138;55.808;37.078;2023-11-18T11:17:42;14.20;;;8.25;;
70213;SDS011;60138;55.808;37.078;2023-11-18T11:20:19;13.95;;;7.20;;
70213;SDS011;60138;55.808;37.078;2023-11-18T11:22:56;14.98;;;7.95;;
70213;SDS011;60138;55.808;37.078;2023-11-18T11:25:33;14.83;;;7.10;;
70213;SDS011;60138;55.808;37.078;2023-11-18T11:28:16;12.95;;;7.95;;
70213;SDS011;60138;55.808;37.078;2023-11-18T11:33:43;17.30;;;8.37;;
70213;SDS011;60138;55.808;37.078;2023-11-18T11:36:17;16.35;;;7.68;;
70213;SDS011;60138;55.808;37.078;2023-11-18T11:38:51;13.70;;;9.30;;
70213;SDS011;60138;55.808;37.078;2023-11-18T11:41:18;13.23;;;8.65;;
70213;SDS011;60138;55.808;37.078;2023-11-18T11:43:46;13.50;;;8.52;;
70213;SDS011;60138;55.808;37.078;2023-11-18T11:46:16;13.18;;;8.43;;
70213;SDS011;60138;55.808;37.078;2023-11-18T11:48:42;17.58;;;8.52;;
70213;SDS011;60138;55.808;37.078;2023-11-18T11:51:11;17.53;;;7.07;;
70213;SDS011;60138;55.808;37.078;2023-11-18T11:53:55;14.15;;;8.27;;
70213;SDS011;60138;55.808;37.078;2023-11-18T11:56:46;12.82;;;7.85;;
70213;SDS011;60138;55.808;37.078;2023-11-18T11:59:15;14.97;;;8.27;;
70213;SDS011;60138;55.808;37.078;2023-11-18T12:01:41;14.35;;;8.65;;
70213;SDS011;60138;55.808;37.078;2023-11-18T12:04:10;17.77;;;8.75;;
70213;SDS011;60138;55.808;37.078;2023-11-18T12:06:39;13.25;;;9.02;;
70213;SDS011;60138;55.808;37.078;2023-11-18T12:09:08;17.95;;;8.63;;
70213;SDS011;60138;55.808;37.078;2023-11-18T12:11:35;15.32;;;8.52;;
70213;SDS011;60138;55.808;37.078;2023-11-18T12:14:08;15.88;;;8.18;;
70213;SDS011;60138;55.808;37.078;2023-11-18T12:19:33;12.55;;;8.93;;
70213;SDS011;60138;55.808;37.078;2023-11-18T12:22:00;17.95;;;8.57;;
70213;SDS011;60138;55.808;37.078;2023-11-18T12:24:25;13.93;;;7.53;;
70213;SDS011;60138;55.808;37.078;2023-11-18T12:26:51;14.00;;;7.35;;
70213;SDS011;60138;55.808;37.078;2023-11-18T12:29:33;14.20;;;8.37;;
70213;SDS011;60138;55.808;37.078;2023-11-18T12:31:59;16.00;;;8.38;;
70213;SDS011;60138;55.808;37.078;2023-11-18T12:34:48;13.82;;;8.13;;
70213;SDS011;60138;55.808;37.078;2023-11-18T12:40:21;17.33;;;8.35;;
70213;SDS011;60138;55.808;37.078;2023-11-18T12:43:09;15.38;;;7.65;;
70213;SDS011;60138;55.808;37.078;2023-11-18T12:48:15;13.05;;;8.73;;
70213;SDS011;60138;55.808;37.078;2023-11-18T12:50:40;17.50;;;8.70;;
70213;SDS011;60138;55.808;37.078;2023-11-18T12:53:06;16.53;;;8.90;;
70213;SDS011;60138;55.808;37.078;2023-11-18T12:55:32;24.73;;;11.13;;
70213;SDS011;60138;55.808;37.078;2023-11-18T12:57:59;22.40;;;11.55;;
70213;SDS011;60138;55.808;37.078;2023-11-18T13:00:24;18.57;;;9.67;;
70213;SDS011;60138;55.808;37.078;2023-11-18T13:02:50;20.42;;;9.85;;
70213;SDS011;60138;55.808;37.078;2023-11-18T13:05:16;25.73;;;9.83;;
70213;SDS011;60138;55.808;37.078;2023-11-18T13:07:42;18.85;;;10.50;;
70213;SDS011;60138;55.808;37.078;2023-11-18T13:10:07;25.23;;;9.53;;
70213;SDS011;60138;55.808;37.078;2023-11-18T13:12:33;18.98;;;10.65;;
70213;SDS011;60138;55.808;37.078;2023-11-18T13:14:59;26.77;;;10.57;;
70213;SDS011;60138;55.808;37.078;2023-11-18T13:17:25;13.95;;;8.23;;
70213;SDS011;60138;55.808;37.078;2023-11-18T13:19:51;15.73;;;9.17;;
70213;SDS011;60138;55.808;37.078;2023-11-18T13:22:17;14.35;;;8.55;;
70213;SDS011;60138;55.808;37.078;2023-11-18T13:24:42;17.50;;;9.83;;
70213;SDS011;60138;55.808;37.078;2023-11-18T13:27:08;25.40;;;12.90;;
70213;SDS011;60138;55.808;37.078;2023-11-18T13:29:35;24.70;;;13.35;;
70213;SDS011;60138;55.808;37.078;2023-11-18T13:32:01;44.53;;;20.13;;
70213;SDS011;60138;55.808;37.078;2023-11-18T13:34:27;51.35;;;22.75;;
70213;SDS011;60138;55.808;37.078;2023-11-18T13:36:53;42.92;;;23.40;;
70213;SDS011;60138;55.808;37.078;2023-11-18T13:39:19;79.37;;;37.17;;
70213;SDS011;60138;55.808;37.078;2023-11-18T13:41:49;145.98;;;57.55;;
70213;SDS011;60138;55.808;37.078;2023-11-18T13:44:34;90.20;;;37.30;;
70213;SDS011;60138;55.808;37.078;2023-11-18T13:47:01;61.57;;;33.47;;
70213;SDS011;60138;55.808;37.078;2023-11-18T13:49:29;38.92;;;17.73;;
70213;SDS011;60138;55.808;37.078;2023-11-18T13:51:55;237.90;;;99.38;;
70213;SDS011;60138;55.808;37.078;2023-11-18T13:54:22;206.98;;;99.35;;
70213;SDS011;60138;55.808;37.078;2023-11-18T13:56:51;87.45;;;45.17;;
70213;SDS011;60138;55.808;37.078;2023-11-18T13:59:16;46.00;;;23.85;;
70213;SDS011;60138;55.808;37.078;2023-11-18T14:01:42;40.07;;;13.30;;
70213;SDS011;60138;55.808;37.078;2023-11-18T14:04:09;22.67;;;11.52;;
70213;SDS011;60138;55.808;37.078;2023-11-18T14:06:35;30.05;;;13.68;;
70213;SDS011;60138;55.808;37.078;2023-11-18T14:09:01;29.25;;;13.15;;
70213;SDS011;60138;55.808;37.078;2023-11-18T14:11:27;33.63;;;14.27;;
70213;SDS011;60138;55.808;37.078;2023-11-18T14:13:53;34.22;;;15.57;;
70213;SDS011;60138;55.808;37.078;2023-11-18T14:16:18;37.60;;;18.70;;
70213;SDS011;60138;55.808;37.078;2023-11-18T14:18:44;32.78;;;16.88;;
70213;SDS011;60138;55.808;37.078;2023-11-18T14:21:10;28.87;;;16.63;;
70213;SDS011;60138;55.808;37.078;2023-11-18T14:23:35;35.08;;;19.15;;
70213;SDS011;60138;55.808;37.078;2023-11-18T14:26:01;43.35;;;19.83;;
70213;SDS011;60138;55.808;37.078;2023-11-18T14:28:27;39.90;;;18.47;;
70213;SDS011;60138;55.808;37.078;2023-11-18T14:30:52;29.48;;;15.93;;